Time;durP1;ratioP1;P1;durP2;ratioP2;P2;SDS_P1;SDS_P2;PMS_P1;PMS_P2;Temp;Humidity;BMP_temperature;BMP_pressure;BME280_temperature;BME280_humidity;BME280_pressure;Samples;Min_cycle;Max_cycle;Signal;HPM_P1;HPM_P2
2022/12/29 00:02:01;;;;;;;18.30;8.40;;;;;;;6.12;88.34;101280.84;5071277;28;20028;-27
2022/12/29 00:04:27;;;;;;;17.48;8.20;;;;;;;5.90;88.92;101261.84;5090123;28;20039;-26
2022/12/29 00:06:53;;;;;;;15.27;8.93;;;;;;;6.08;88.39;101260.97;5089318;28;20039;-27
2022/12/29 00:09:19;;;;;;;17.25;8.20;;;;;;;6.11;88.76;101284.47;5071846;28;20027;-27
2022/12/29 00:11:44;;;;;;;18.70;9.02;;;;;;;6.04;88.86;101284.28;5089499;28;20035;-29
2022/12/29 00:16:55;;;;;;;16.85;8.77;;;;;;;6.18;87.78;101286.31;5089654;28;20050;-26
2022/12/29 00:35:58;;;;;;;18.45;9.63;;;;;;;6.39;86.13;101307.09;5089306;28;20904;-27
2022/12/29 00:44:06;;;;;;;32.55;14.15;;;;;;;6.41;86.27;101313.06;5088660;28;20112;-26
2022/12/29 00:46:32;;;;;;;58.30;23.30;;;;;;;6.44;85.57;101303.97;5088964;28;20035;-26
2022/12/29 00:51:42;;;;;;;26.90;12.93;;;;;;;6.54;84.59;101298.50;5089200;28;20059;-26
2022/12/29 00:54:08;;;;;;;26.13;11.10;;;;;;;6.37;85.65;101301.13;5088597;28;20111;-27
2022/12/29 00:56:33;;;;;;;21.35;11.63;;;;;;;6.46;85.55;101299.34;5089046;28;20042;-26
2022/12/29 00:59:07;;;;;;;22.45;10.55;;;;;;;6.67;85.44;101320.09;5088662;28;20028;-28
2022/12/29 01:01:35;;;;;;;17.15;8.77;;;;;;;6.44;86.31;101317.22;5089608;28;20111;-26
2022/12/29 01:04:01;;;;;;;18.90;8.90;;;;;;;6.45;87.05;101313.56;5088282;28;20499;-27
2022/12/29 01:06:27;;;;;;;17.83;8.63;;;;;;;6.86;85.33;101318.13;5088790;28;20028;-26
2022/12/29 01:11:37;;;;;;;16.38;7.93;;;;;;;6.81;84.29;101297.41;5089083;28;20419;-27
2022/12/29 01:14:03;;;;;;;18.20;8.70;;;;;;;6.96;84.14;101321.47;5088532;28;20027;-28
2022/12/29 01:16:29;;;;;;;15.18;8.38;;;;;;;6.75;85.10;101317.47;5088792;28;20093;-26
2022/12/29 01:18:54;;;;;;;14.98;8.63;;;;;;;6.64;85.50;101307.19;5070495;28;20051;-27
2022/12/29 01:21:19;;;;;;;19.92;10.20;;;;;;;6.55;85.45;101314.25;5070421;28;20074;-27
2022/12/29 01:23:45;;;;;;;20.23;11.38;;;;;;;6.48;85.39;101312.41;5088680;28;20734;-28
2022/12/29 01:26:16;;;;;;;25.63;13.10;;;;;;;6.20;86.30;101300.25;5087895;28;20032;-29
2022/12/29 01:28:42;;;;;;;20.20;11.63;;;;;;;6.00;86.71;101298.81;5070759;28;20067;-28
2022/12/29 01:31:12;;;;;;;21.95;12.15;;;;;;;6.08;87.08;101320.06;5070509;28;20031;-27
2022/12/29 01:33:38;;;;;;;23.90;12.73;;;;;;;6.03;86.20;101309.94;5088833;28;20032;-26
2022/12/29 01:36:06;;;;;;;22.58;12.55;;;;;;;6.09;86.83;101315.56;5073349;28;20405;-28
2022/12/29 01:38:32;;;;;;;24.20;12.45;;;;;;;6.11;85.98;101308.31;5091979;28;20019;-28
2022/12/29 01:40:57;;;;;;;20.20;11.57;;;;;;;6.26;85.41;101301.41;5092232;28;20032;-26
2022/12/29 01:43:47;;;;;;;23.50;13.30;;;;;;;6.31;85.14;101300.94;5092571;28;20031;-28
2022/12/29 01:46:29;;;;;;;20.75;12.75;;;;;;;6.16;85.53;101296.25;5091859;28;20071;-28
2022/12/29 01:49:07;;;;;;;21.60;11.80;;;;;;;6.07;86.13;101299.00;5091977;28;20016;-27
2022/12/29 01:51:37;;;;;;;21.42;11.75;;;;;;;6.04;86.26;101294.88;5092284;28;20107;-26
2022/12/29 01:54:07;;;;;;;22.42;11.38;;;;;;;6.01;85.77;101285.44;5092161;28;20543;-29
2022/12/29 01:56:33;;;;;;;18.90;11.65;;;;;;;6.10;85.73;101288.13;5092260;28;20118;-30
2022/12/29 01:59:04;;;;;;;19.25;11.40;;;;;;;6.22;85.45;101294.78;5091824;28;20081;-28
2022/12/29 02:01:30;;;;;;;21.05;12.00;;;;;;;6.19;85.74;101281.84;5073601;28;20032;-28
2022/12/29 02:03:56;;;;;;;21.08;12.85;;;;;;;6.15;85.16;101281.38;5091879;28;20097;-26
2022/12/29 02:06:26;;;;;;;23.67;14.73;;;;;;;6.11;85.52;101273.88;5091541;28;20024;-26
2022/12/29 02:08:55;;;;;;;23.27;14.10;;;;;;;6.15;85.27;101273.41;5091904;28;20109;-26
2022/12/29 02:11:23;;;;;;;19.90;11.50;;;;;;;6.09;85.41;101259.97;5073483;28;20024;-27
2022/12/29 02:13:48;;;;;;;22.17;12.52;;;;;;;6.03;85.83;101280.81;5091451;28;20028;-27
2022/12/29 02:16:40;;;;;;;19.83;11.57;;;;;;;6.33;86.09;101286.53;5072783;28;20029;-26
2022/12/29 02:19:42;;;;;;;23.38;12.35;;;;;;;6.28;85.27;101275.59;5091388;28;20060;-27
2022/12/29 02:22:40;;;;;;;23.15;12.35;;;;;;;6.16;84.91;101255.69;5071069;28;20060;-29
2022/12/29 02:25:26;;;;;;;19.15;10.88;;;;;;;6.40;84.84;101282.25;5069232;28;20566;-26
2022/12/29 02:28:11;;;;;;;19.80;10.88;;;;;;;6.19;85.47;101271.25;5039335;28;20550;-27
2022/12/29 02:30:55;;;;;;;19.70;9.95;;;;;;;6.19;85.91;101277.41;5053095;28;20058;-27
2022/12/29 02:33:45;;;;;;;19.55;11.52;;;;;;;6.16;86.57;101276.88;5071009;28;20031;-28
2022/12/29 02:36:29;;;;;;;20.67;11.73;;;;;;;5.98;87.15;101259.25;5070914;28;20027;-25
2022/12/29 02:39:05;;;;;;;19.77;11.32;;;;;;;5.81;88.48;101250.38;5070805;28;20032;-29
2022/12/29 02:41:44;;;;;;;23.10;11.85;;;;;;;5.91;88.15;101252.94;5070790;28;20032;-26
2022/12/29 02:44:22;;;;;;;30.20;12.65;;;;;;;5.91;87.77;101257.41;5069424;28;20025;-26
2022/12/29 02:46:53;;;;;;;;;;;;;;;5.77;88.58;101245.59;5070960;28;20027;-29
2022/12/29 02:49:21;;;;;;;21.88;11.40;;;;;;;5.73;89.42;101249.53;5070586;28;19920;-27
2022/12/29 02:51:54;;;;;;;20.88;11.13;;;;;;;5.66;89.39;101228.16;5069339;28;20032;-28
2022/12/29 02:57:23;;;;;;;22.08;11.23;;;;;;;6.14;87.40;101247.91;5070786;28;20097;-27
2022/12/29 02:59:58;;;;;;;21.45;11.25;;;;;;;5.76;88.08;101233.31;5070368;28;20031;-27
2022/12/29 03:02:54;;;;;;;20.85;11.75;;;;;;;6.11;87.98;101248.25;5069201;28;20031;-27
2022/12/29 03:05:31;;;;;;;22.20;11.13;;;;;;;5.80;88.76;101245.25;5070297;28;20781;-27
2022/12/29 03:08:22;;;;;;;22.77;11.80;;;;;;;6.12;87.41;101243.75;5068907;28;20028;-27
2022/12/29 03:11:01;;;;;;;22.33;12.45;;;;;;;5.91;87.53;101233.56;5070268;28;20025;-27
2022/12/29 03:16:47;;;;;;;19.95;12.05;;;;;;;5.53;89.83;101233.88;5070398;28;20079;-26
2022/12/29 03:19:12;;;;;;;21.35;10.90;;;;;;;5.56;90.66;101243.34;5070074;28;20123;-28
2022/12/29 03:24:31;;;;;;;21.10;11.93;;;;;;;5.61;90.12;101231.25;5070068;28;20502;-26
2022/12/29 03:27:01;;;;;;;20.55;11.32;;;;;;;5.61;89.42;101217.22;5051653;28;20035;-29
2022/12/29 03:29:30;;;;;;;20.08;11.55;;;;;;;5.80;88.90;101235.50;5070208;28;20032;-27
2022/12/29 03:31:57;;;;;;;23.15;12.30;;;;;;;5.68;88.88;101230.63;5069912;28;20484;-28
2022/12/29 03:34:24;;;;;;;20.00;11.00;;;;;;;5.40;90.04;101212.31;5069750;28;20032;-28
2022/12/29 03:36:55;;;;;;;20.13;11.48;;;;;;;5.47;91.02;101223.91;5069767;28;20510;-27
2022/12/29 03:39:23;;;;;;;22.27;11.75;;;;;;;5.62;89.60;101222.34;5069719;28;20107;-26
2022/12/29 03:41:56;;;;;;;18.98;11.50;;;;;;;5.80;89.03;101239.94;5069586;28;20054;-28
2022/12/29 03:44:21;;;;;;;21.20;11.68;;;;;;;5.77;88.56;101237.63;5069637;28;20052;-27
2022/12/29 03:46:46;;;;;;;18.83;11.88;;;;;;;5.85;87.66;101237.69;5069584;28;20117;-26
2022/12/29 03:49:12;;;;;;;21.83;11.32;;;;;;;6.00;87.86;101233.44;5068157;28;20082;-30
2022/12/29 03:51:37;;;;;;;23.55;13.40;;;;;;;6.12;87.12;101243.75;5069632;28;20033;-27
2022/12/29 03:54:03;;;;;;;19.00;11.25;;;;;;;5.88;87.71;101221.47;5068959;28;20021;-27
2022/12/29 03:56:28;;;;;;;23.00;11.43;;;;;;;5.64;89.23;101246.84;5069525;28;20086;-28
2022/12/29 03:58:54;;;;;;;20.30;11.13;;;;;;;5.72;89.27;101242.56;5069052;28;20056;-27
2022/12/29 04:01:19;;;;;;;21.27;10.57;;;;;;;5.70;88.61;101226.00;5069497;28;20535;-27
2022/12/29 04:03:45;;;;;;;16.50;10.13;;;;;;;5.70;88.74;101226.88;5069765;28;20031;-26
2022/12/29 04:06:10;;;;;;;23.15;10.23;;;;;;;5.77;88.33;101241.09;5069083;28;20489;-29
2022/12/29 04:08:35;;;;;;;17.55;10.50;;;;;;;5.58;89.27;101218.38;5069186;28;20071;-27
2022/12/29 04:11:01;;;;;;;19.73;11.20;;;;;;;5.58;88.62;101221.00;5051364;28;20035;-28
2022/12/29 04:13:26;;;;;;;19.17;10.45;;;;;;;5.46;90.60;101235.50;5068148;28;20025;-27
2022/12/29 04:15:52;;;;;;;22.63;10.57;;;;;;;5.73;89.72;101231.00;5051085;28;20040;-27
2022/12/29 04:18:17;;;;;;;21.27;11.27;;;;;;;5.60;89.28;101219.03;5067633;28;20051;-27
2022/12/29 04:20:59;;;;;;;21.90;12.93;;;;;;;5.70;89.34;101234.81;5067779;28;20055;-26
2022/12/29 04:23:25;;;;;;;27.33;14.82;;;;;;;5.47;89.90;101234.50;5069291;28;20475;-27
2022/12/29 04:25:50;;;;;;;201.32;75.28;;;;;;;5.71;89.27;101231.16;5069090;28;20158;-29
2022/12/29 04:28:16;;;;;;;53.55;25.23;;;;;;;5.60;89.93;101231.44;5068779;28;20036;-28
2022/12/29 04:30:43;;;;;;;32.08;15.98;;;;;;;5.46;90.75;101221.44;5069194;28;20075;-26
2022/12/29 04:33:09;;;;;;;23.05;13.55;;;;;;;5.66;89.82;101243.19;5068852;28;20028;-28
2022/12/29 04:35:34;;;;;;;29.08;15.25;;;;;;;5.51;89.37;101217.31;5069005;28;20496;-26
2022/12/29 04:38:00;;;;;;;27.60;13.68;;;;;;;5.55;89.45;101220.50;5068517;28;20027;-30
2022/12/29 04:40:25;;;;;;;21.60;13.52;;;;;;;5.70;89.23;101249.84;5069094;28;20029;-28
2022/12/29 04:42:51;;;;;;;25.80;16.83;;;;;;;5.78;89.28;101241.94;5068910;28;20024;-26
2022/12/29 04:45:17;;;;;;;25.88;14.20;;;;;;;5.76;89.04;101246.56;5068915;28;20146;-26
2022/12/29 04:47:42;;;;;;;35.78;16.77;;;;;;;5.78;88.63;101263.97;5068734;28;20078;-27
2022/12/29 04:50:08;;;;;;;27.65;14.52;;;;;;;5.66;89.17;101259.06;5068522;28;20029;-27
2022/12/29 04:52:34;;;;;;;50.10;21.23;;;;;;;5.67;89.10;101260.75;5068819;28;20052;-27
2022/12/29 04:55:00;;;;;;;53.58;24.10;;;;;;;5.68;88.87;101268.53;5068578;28;20106;-28
2022/12/29 04:57:26;;;;;;;42.45;20.27;;;;;;;5.73;89.27;101266.22;5068971;28;20392;-26
2022/12/29 04:59:51;;;;;;;42.75;20.73;;;;;;;5.80;88.65;101255.84;5069038;28;20455;-28
2022/12/29 05:02:17;;;;;;;33.08;17.65;;;;;;;5.85;88.51;101274.75;5068548;28;20109;-28
2022/12/29 05:04:42;;;;;;;34.90;16.25;;;;;;;5.84;88.45;101275.72;5067163;28;20045;-27
2022/12/29 05:07:08;;;;;;;25.45;13.73;;;;;;;5.68;88.42;101267.69;5068769;28;20028;-27
2022/12/29 05:09:34;;;;;;;31.92;17.42;;;;;;;5.96;87.02;101271.81;5068484;28;20477;-30
2022/12/29 05:11:59;;;;;;;29.20;16.08;;;;;;;5.88;87.45;101277.06;5072308;28;20024;-32
2022/12/29 05:14:25;;;;;;;26.05;12.82;;;;;;;5.67;87.77;101250.97;5072474;28;20416;-27
2022/12/29 05:16:50;;;;;;;22.85;12.70;;;;;;;5.62;87.72;101256.75;5072344;28;20031;-29
2022/12/29 05:19:16;;;;;;;21.50;12.50;;;;;;;5.75;88.65;101268.72;5072621;28;20250;-27
2022/12/29 05:21:43;;;;;;;24.10;12.98;;;;;;;5.82;88.20;101273.25;5072068;28;20114;-27
2022/12/29 05:24:08;;;;;;;24.27;14.43;;;;;;;5.71;88.38;101272.69;5071941;28;20473;-28
2022/12/29 05:26:34;;;;;;;24.42;15.18;;;;;;;5.71;88.10;101268.22;5072133;28;20027;-26
2022/12/29 05:28:59;;;;;;;24.27;14.50;;;;;;;5.53;89.38;101255.03;5072204;28;20032;-28
2022/12/29 05:31:25;;;;;;;21.83;12.40;;;;;;;5.53;88.76;101255.03;5072041;28;20020;-28
2022/12/29 05:33:51;;;;;;;22.00;13.13;;;;;;;5.49;89.73;101274.03;5054192;28;20035;-28
2022/12/29 05:36:16;;;;;;;24.13;13.77;;;;;;;5.69;88.85;101278.13;5071687;28;20510;-28
2022/12/29 05:38:41;;;;;;;21.80;12.85;;;;;;;5.72;89.37;101277.81;5071962;28;20532;-27
2022/12/29 05:41:07;;;;;;;28.02;15.80;;;;;;;5.55;88.31;101245.13;5071935;28;20120;-27
2022/12/29 05:43:32;;;;;;;29.95;14.85;;;;;;;5.69;88.51;101269.38;5071124;28;20465;-27
2022/12/29 05:45:58;;;;;;;29.73;14.52;;;;;;;5.80;88.53;101277.88;5054059;28;20032;-26
2022/12/29 05:48:23;;;;;;;23.67;13.63;;;;;;;5.71;89.29;101280.63;5071547;28;20029;-26
2022/12/29 05:50:50;;;;;;;25.92;14.40;;;;;;;5.69;89.47;101290.53;5070340;28;20044;-27
2022/12/29 05:53:15;;;;;;;24.30;13.57;;;;;;;5.70;88.76;101281.59;5053558;28;20047;-26
2022/12/29 05:55:41;;;;;;;23.25;11.63;;;;;;;5.52;89.23;101248.09;5071835;28;20036;-27
2022/12/29 05:58:06;;;;;;;32.55;20.15;;;;;;;5.61;89.26;101278.91;5071612;28;20037;-26
2022/12/29 06:00:32;;;;;;;40.78;24.17;;;;;;;5.46;89.55;101277.81;5071582;28;20466;-28
2022/12/29 06:02:57;;;;;;;36.05;21.60;;;;;;;5.29;90.95;101278.69;5071604;28;20058;-27
2022/12/29 06:05:23;;;;;;;32.90;21.33;;;;;;;5.44;90.46;101277.97;5071391;28;20024;-26
2022/12/29 06:07:48;;;;;;;38.72;21.02;;;;;;;5.39;90.19;101279.41;5071645;28;20027;-27
2022/12/29 06:10:13;;;;;;;28.30;17.42;;;;;;;5.38;90.08;101261.91;5071178;28;20396;-26
2022/12/29 06:12:39;;;;;;;39.28;22.77;;;;;;;5.24;90.86;101261.47;5070287;28;20481;-28
2022/12/29 06:15:05;;;;;;;58.72;30.33;;;;;;;5.39;90.48;101274.13;5071502;28;20040;-26
2022/12/29 06:17:30;;;;;;;52.35;28.60;;;;;;;5.37;90.21;101255.78;5071529;28;20035;-27
2022/12/29 06:19:56;;;;;;;44.88;23.30;;;;;;;5.45;89.96;101278.78;5070825;28;20036;-28
2022/12/29 06:22:21;;;;;;;36.30;21.48;;;;;;;5.51;89.76;101280.81;5070739;28;20067;-26
2022/12/29 06:24:47;;;;;;;44.25;23.67;;;;;;;5.63;88.92;101262.88;5071138;28;20028;-26
2022/12/29 06:27:13;;;;;;;44.78;23.17;;;;;;;5.72;88.31;101274.31;5052928;28;20037;-29
2022/12/29 06:29:40;;;;;;;46.47;23.98;;;;;;;5.55;88.81;101255.72;5071181;28;20031;-26
2022/12/29 06:32:06;;;;;;;53.22;28.58;;;;;;;5.46;88.63;101261.13;5070746;28;20041;-27
2022/12/29 06:34:31;;;;;;;53.88;29.08;;;;;;;5.35;89.50;101268.34;5052920;28;20040;-29
2022/12/29 06:36:57;;;;;;;45.95;24.15;;;;;;;5.31;89.99;101252.91;5071387;28;20527;-27
2022/12/29 06:39:22;;;;;;;37.00;18.65;;;;;;;5.44;89.58;101275.34;5069581;28;20017;-26
2022/12/29 06:41:47;;;;;;;32.53;16.38;;;;;;;5.52;89.14;101277.22;5071008;28;20043;-26
2022/12/29 06:44:13;;;;;;;30.73;18.52;;;;;;;5.63;89.15;101279.56;5070690;28;20036;-27
2022/12/29 06:46:38;;;;;;;33.30;17.30;;;;;;;5.70;88.81;101277.16;5070679;28;20029;-28
2022/12/29 06:49:04;;;;;;;27.33;13.45;;;;;;;5.78;88.58;101263.97;5070682;28;20396;-30
2022/12/29 06:51:29;;;;;;;29.95;15.63;;;;;;;5.90;88.57;101287.50;5070861;28;20377;-26
2022/12/29 06:53:55;;;;;;;40.92;18.75;;;;;;;6.10;87.67;101283.66;5070504;28;20507;-27
2022/12/29 06:56:20;;;;;;;34.47;17.27;;;;;;;6.17;87.56;101279.38;5052486;28;20133;-26
2022/12/29 06:58:45;;;;;;;34.53;15.68;;;;;;;6.34;86.59;101290.03;5070473;28;20499;-30
2022/12/29 07:01:11;;;;;;;58.10;41.97;;;;;;;6.57;85.73;101290.25;5070497;28;20021;-27
2022/12/29 07:03:36;;;;;;;24.75;15.30;;;;;;;6.66;84.74;101283.97;5070197;28;20028;-27
2022/12/29 07:06:02;;;;;;;26.35;17.23;;;;;;;6.37;85.97;101274.63;5070178;28;20052;-27
2022/12/29 07:08:27;;;;;;;23.52;15.00;;;;;;;6.28;86.90;101283.56;5070492;28;20457;-27
2022/12/29 07:10:53;;;;;;;24.98;13.15;;;;;;;6.39;86.32;101266.50;5070123;28;20051;-25
2022/12/29 07:13:18;;;;;;;24.58;13.55;;;;;;;6.55;86.48;101278.97;5070361;28;20025;-27
2022/12/29 07:15:44;;;;;;;25.33;12.82;;;;;;;6.53;86.54;101289.75;5052145;28;20036;-29
2022/12/29 07:18:09;;;;;;;21.35;12.63;;;;;;;6.43;85.82;101266.03;5069783;28;20086;-26
2022/12/29 07:20:41;;;;;;;21.50;12.43;;;;;;;6.76;85.09;101307.66;5070200;28;20090;-27
2022/12/29 07:23:07;;;;;;;26.27;13.77;;;;;;;6.69;85.10;101302.19;5069667;28;20040;-27
2022/12/29 07:25:34;;;;;;;24.38;12.32;;;;;;;6.53;86.43;101304.81;5070016;28;20489;-27
2022/12/29 07:28:00;;;;;;;18.07;10.63;;;;;;;13.46;74.83;101317.78;5069702;28;20025;-30
2022/12/29 07:30:26;;;;;;;18.70;10.45;;;;;;;15.46;54.63;101329.47;5069891;28;20078;-28
2022/12/29 07:32:52;;;;;;;19.67;10.23;;;;;;;18.46;48.95;101322.38;5068822;28;20048;-27
2022/12/29 07:35:18;;;;;;;20.02;10.85;;;;;;;12.99;55.50;101305.34;5069741;28;20035;-30
2022/12/29 07:37:43;;;;;;;17.58;11.60;;;;;;;10.77;63.91;101301.63;5069610;28;20111;-28
2022/12/29 07:40:09;;;;;;;19.42;11.25;;;;;;;9.33;70.11;101305.63;5069520;28;20020;-26
2022/12/29 07:42:35;;;;;;;17.15;11.75;;;;;;;8.83;72.74;101295.38;5069755;28;20032;-28
2022/12/29 07:45:01;;;;;;;104.63;58.67;;;;;;;8.94;73.55;101322.56;5069594;28;20034;-27
2022/12/29 07:47:26;;;;;;;22.65;13.40;;;;;;;8.57;75.33;101316.97;5069510;28;20047;-26
2022/12/29 07:49:52;;;;;;;18.20;11.35;;;;;;;8.37;75.43;101300.59;5069654;28;20035;-26
2022/12/29 07:52:17;;;;;;;17.40;11.60;;;;;;;8.39;75.92;101298.59;5051591;28;20032;-27
2022/12/29 07:54:43;;;;;;;25.00;13.23;;;;;;;8.44;75.83;101317.56;5069419;28;20078;-28
2022/12/29 07:57:08;;;;;;;20.60;12.18;;;;;;;8.20;76.54;101314.97;5069437;28;20039;-27
2022/12/29 07:59:34;;;;;;;67.90;30.42;;;;;;;8.09;76.61;101316.19;5069466;28;20063;-27
2022/12/29 08:01:59;;;;;;;21.20;12.15;;;;;;;8.08;76.78;101322.50;5051397;28;20025;-30
2022/12/29 08:04:25;;;;;;;19.73;11.70;;;;;;;8.10;77.13;101311.69;5069966;28;20032;-29
2022/12/29 08:06:50;;;;;;;18.30;11.05;;;;;;;8.11;75.82;101318.66;5069223;28;20024;-26
2022/12/29 08:09:16;;;;;;;19.75;11.48;;;;;;;8.28;74.92;101327.41;5069343;28;20464;-26
2022/12/29 08:11:42;;;;;;;20.88;11.95;;;;;;;8.14;74.52;101331.63;5067913;28;20036;-27
2022/12/29 08:14:08;;;;;;;24.65;11.45;;;;;;;8.00;75.94;101320.69;5069161;28;20028;-27
2022/12/29 08:16:34;;;;;;;19.95;11.98;;;;;;;8.07;74.49;101325.31;5068947;28;20032;-25
2022/12/29 08:18:59;;;;;;;22.30;12.93;;;;;;;8.08;75.39;101325.16;5069210;28;20089;-27
2022/12/29 08:21:27;;;;;;;30.45;13.38;;;;;;;8.16;74.62;101325.13;5069201;28;20105;-27
2022/12/29 08:23:53;;;;;;;23.17;12.90;;;;;;;8.45;74.60;101318.38;5069338;28;20041;-26
2022/12/29 08:26:19;;;;;;;22.58;12.88;;;;;;;8.39;74.00;101335.81;5068952;28;20033;-29
2022/12/29 08:28:44;;;;;;;22.35;13.90;;;;;;;8.53;74.37;101334.28;5069094;28;20392;-28
2022/12/29 08:31:10;;;;;;;26.55;14.98;;;;;;;8.78;73.62;101324.31;5069530;28;20028;-28
2022/12/29 08:33:35;;;;;;;21.52;13.07;;;;;;;9.08;73.61;101331.63;5067762;28;20029;-27
2022/12/29 08:36:03;;;;;;;20.23;12.38;;;;;;;8.98;72.83;101334.53;5050986;28;20029;-26
2022/12/29 08:38:28;;;;;;;22.67;11.98;;;;;;;8.91;72.02;101333.56;5069372;28;20036;-25
2022/12/29 08:40:55;;;;;;;21.27;11.98;;;;;;;8.88;73.13;101321.44;5069352;28;20044;-27
2022/12/29 08:43:20;;;;;;;21.40;12.13;;;;;;;8.81;72.21;101334.63;5069773;28;20027;-28
2022/12/29 08:45:46;;;;;;;22.98;12.40;;;;;;;8.96;72.21;101328.53;5054786;28;20032;-27
2022/12/29 08:48:11;;;;;;;20.40;12.00;;;;;;;8.94;73.15;101312.75;5072913;28;20111;-27
2022/12/29 08:50:36;;;;;;;21.33;11.45;;;;;;;9.00;72.32;101316.53;5073101;28;20162;-28
2022/12/29 08:53:02;;;;;;;21.50;12.23;;;;;;;9.16;71.62;101304.94;5073112;28;20029;-31
2022/12/29 08:55:27;;;;;;;23.30;13.27;;;;;;;9.16;70.85;101300.44;5072920;28;20397;-28
2022/12/29 08:57:53;;;;;;;23.23;13.05;;;;;;;9.39;70.79;101302.25;5073026;28;20161;-26
2022/12/29 09:00:20;;;;;;;21.98;13.20;;;;;;;9.77;70.14;101286.22;5072332;28;20131;-27
2022/12/29 09:02:45;;;;;;;22.30;13.40;;;;;;;9.73;70.54;101284.94;5072869;28;20165;-27
2022/12/29 09:05:11;;;;;;;21.00;13.68;;;;;;;9.79;69.70;101285.03;5071285;28;20482;-27
2022/12/29 09:07:36;;;;;;;21.88;13.32;;;;;;;9.82;68.41;101283.81;5072848;28;20024;-30
2022/12/29 09:10:02;;;;;;;22.88;14.75;;;;;;;9.76;68.31;101276.56;5072479;28;20035;-26
2022/12/29 09:12:28;;;;;;;34.08;18.83;;;;;;;9.69;68.72;101281.81;5071206;28;20058;-27
2022/12/29 09:14:53;;;;;;;21.08;12.82;;;;;;;9.63;68.76;101278.03;5072507;28;20032;-28
2022/12/29 09:20:03;;;;;;;23.27;13.73;;;;;;;10.21;67.16;101282.69;5072648;28;20038;-27
2022/12/29 09:22:29;;;;;;;20.58;13.65;;;;;;;9.73;68.29;101274.28;5053849;28;20056;-27
2022/12/29 09:24:54;;;;;;;18.75;11.77;;;;;;;10.21;67.98;101266.69;5072193;28;20548;-26
2022/12/29 09:27:20;;;;;;;22.38;12.70;;;;;;;10.34;66.56;101258.91;5071925;28;20025;-27
2022/12/29 09:29:45;;;;;;;23.77;14.18;;;;;;;10.59;65.37;101253.22;5072528;28;20460;-28
2022/12/29 09:32:10;;;;;;;20.52;11.98;;;;;;;10.73;65.28;101255.00;5072108;28;20473;-26
2022/12/29 09:34:36;;;;;;;25.33;12.65;;;;;;;10.49;65.97;101258.03;5072342;28;20024;-31
2022/12/29 09:37:01;;;;;;;21.30;12.52;;;;;;;10.55;65.68;101249.28;5072134;28;20063;-27
2022/12/29 09:39:27;;;;;;;21.60;13.00;;;;;;;10.86;65.66;101223.06;5054157;28;20028;-28
2022/12/29 09:42:02;;;;;;;21.15;13.07;;;;;;;10.79;66.00;101238.22;5053899;28;20036;-26
2022/12/29 09:45:08;;;;;;;19.80;12.75;;;;;;;11.03;65.29;101209.44;5072358;28;20081;-26
2022/12/29 09:47:34;;;;;;;22.00;11.25;;;;;;;11.07;65.02;101234.75;5071927;28;20028;-28
2022/12/29 09:50:22;;;;;;;19.13;12.88;;;;;;;11.31;65.54;101230.00;5071828;28;20519;-33
2022/12/29 09:53:00;;;;;;;21.92;12.02;;;;;;;11.35;63.76;101210.72;5053669;28;20427;-32
2022/12/29 09:55:35;;;;;;;21.02;11.25;;;;;;;11.43;60.87;101228.44;5071160;28;20063;-27
2022/12/29 09:58:11;;;;;;;20.05;11.10;;;;;;;11.45;62.01;101215.72;5071605;28;20136;-28
2022/12/29 10:00:58;;;;;;;21.40;12.70;;;;;;;11.21;63.65;101212.47;5071582;28;20495;-29
2022/12/29 10:03:27;;;;;;;21.02;12.02;;;;;;;11.32;61.84;101207.59;5071667;28;20052;-29
2022/12/29 10:06:15;;;;;;;20.08;12.05;;;;;;;11.52;60.75;101208.53;5070142;28;20039;-25
2022/12/29 10:08:57;;;;;;;26.23;13.63;;;;;;;11.75;59.87;101205.59;5071582;28;20181;-26
2022/12/29 10:12:02;;;;;;;21.58;12.10;;;;;;;11.68;59.12;101204.72;5071741;28;20032;-27
2022/12/29 10:14:36;;;;;;;56.00;29.58;;;;;;;11.71;60.41;101199.00;5071444;28;20036;-28
2022/12/29 10:17:20;;;;;;;50.50;27.30;;;;;;;12.37;58.81;101198.41;5071467;28;20040;-26
2022/12/29 10:20:04;;;;;;;23.52;13.43;;;;;;;12.38;57.65;101199.22;5069958;28;20115;-29
2022/12/29 10:22:35;;;;;;;23.65;13.35;;;;;;;12.68;57.13;101191.66;5071279;28;20041;-28
2022/12/29 10:25:10;;;;;;;23.92;13.93;;;;;;;12.95;55.76;101188.97;5071276;28;20070;-27
2022/12/29 10:27:37;;;;;;;22.77;14.52;;;;;;;13.13;56.31;101175.78;5071222;28;20140;-30
2022/12/29 10:30:03;;;;;;;22.80;14.52;;;;;;;12.89;55.99;101165.72;5070585;28;20032;-27
2022/12/29 10:32:31;;;;;;;23.10;14.18;;;;;;;13.14;56.79;101172.09;5069974;28;20033;-28
2022/12/29 10:35:13;;;;;;;23.50;14.27;;;;;;;12.73;56.89;101178.50;5070939;28;20396;-27
2022/12/29 10:38:12;;;;;;;25.40;13.98;;;;;;;12.94;56.75;101172.09;5071076;28;20178;-26
2022/12/29 10:40:51;;;;;;;22.73;13.32;;;;;;;12.97;53.32;101162.81;5071183;28;20025;-28
2022/12/29 10:43:26;;;;;;;20.73;13.80;;;;;;;13.03;54.85;101154.78;5069608;28;20036;-29
2022/12/29 10:46:02;;;;;;;24.83;14.18;;;;;;;13.33;54.83;101140.13;5070832;28;20020;-29
2022/12/29 10:48:33;;;;;;;23.45;13.93;;;;;;;13.26;55.18;101148.16;5070625;28;20082;-27
2022/12/29 10:51:03;;;;;;;20.27;12.80;;;;;;;13.45;54.35;101135.75;5069434;28;20033;-27
2022/12/29 10:53:49;;;;;;;23.80;14.15;;;;;;;13.36;54.10;101131.66;5053108;28;20385;-27
2022/12/29 10:56:29;;;;;;;20.95;13.23;;;;;;;13.12;55.13;101154.56;5052481;28;20423;-30
2022/12/29 10:59:01;;;;;;;21.48;13.65;;;;;;;13.33;55.19;101148.16;5070433;28;20507;-30
2022/12/29 11:01:39;;;;;;;22.50;15.05;;;;;;;13.84;52.58;101137.44;5070666;28;20086;-27
2022/12/29 11:04:38;;;;;;;20.77;13.60;;;;;;;14.61;51.95;101137.38;5070392;28;20054;-27
2022/12/29 11:07:06;;;;;;;23.77;14.15;;;;;;;14.62;50.15;101108.66;5070116;28;20029;-27
2022/12/29 11:09:35;;;;;;;23.30;14.55;;;;;;;14.68;50.16;101125.78;5070263;28;20064;-29
2022/12/29 11:12:00;;;;;;;20.60;13.88;;;;;;;14.73;50.16;101126.75;5069843;28;20033;-27
2022/12/29 11:14:29;;;;;;;19.95;13.25;;;;;;;14.59;51.14;101131.41;5052451;28;20408;-27
2022/12/29 11:17:02;;;;;;;21.15;13.57;;;;;;;14.98;49.40;101107.91;5068952;28;20032;-29
2022/12/29 11:19:31;;;;;;;21.13;14.05;;;;;;;15.18;49.33;101118.47;5070581;28;20047;-28
2022/12/29 11:22:12;;;;;;;;;;;;;;;15.47;48.71;101124.13;5068749;28;20141;-28
2022/12/29 11:24:45;;;;;;;21.58;13.48;;;;;;;15.38;49.20;101126.28;5068994;28;19951;-27
2022/12/29 11:27:17;;;;;;;22.05;13.93;;;;;;;15.70;48.13;101112.66;5069977;28;20067;-28
2022/12/29 11:29:43;;;;;;;23.35;14.10;;;;;;;16.20;46.90;101125.84;5070199;28;20085;-26
2022/12/29 11:32:24;;;;;;;21.42;14.38;;;;;;;15.84;46.79;101121.41;5069666;28;20028;-29
2022/12/29 11:34:50;;;;;;;21.52;14.45;;;;;;;15.90;47.24;101112.41;5068557;28;20169;-28
2022/12/29 11:37:19;;;;;;;20.92;13.88;;;;;;;16.12;47.09;101106.50;5069579;28;20054;-27
2022/12/29 11:40:07;;;;;;;21.13;13.75;;;;;;;16.35;46.09;101106.56;5069995;28;20477;-27
2022/12/29 11:42:51;;;;;;;21.10;14.10;;;;;;;16.48;46.17;101114.41;5069777;28;20458;-29
2022/12/29 11:45:20;;;;;;;22.40;14.40;;;;;;;16.32;46.69;101112.41;5069709;28;20040;-27
2022/12/29 11:48:16;;;;;;;21.77;14.63;;;;;;;15.97;46.24;101099.69;5068616;28;20056;-27
2022/12/29 11:50:48;;;;;;;20.35;14.32;;;;;;;16.10;45.73;101096.00;5064275;28;20037;-27
2022/12/29 11:53:21;;;;;;;19.50;14.15;;;;;;;15.73;46.14;101092.56;5051279;28;20492;-28
2022/12/29 11:55:56;;;;;;;21.13;15.23;;;;;;;16.90;44.46;101086.59;5069528;28;20055;-30
2022/12/29 11:58:28;;;;;;;21.95;13.70;;;;;;;16.73;44.67;101082.94;5051369;28;20112;-31
2022/12/29 12:00:56;;;;;;;21.30;13.82;;;;;;;16.73;44.88;101070.28;5051166;28;20040;-30
2022/12/29 12:03:27;;;;;;;22.38;14.63;;;;;;;16.52;44.90;101084.34;5069576;28;20031;-28
2022/12/29 12:06:00;;;;;;;20.55;15.45;;;;;;;16.64;45.26;101055.53;5069369;28;20800;-29
2022/12/29 12:08:48;;;;;;;19.95;14.32;;;;;;;16.94;44.51;101082.38;5068129;28;20036;-26
2022/12/29 12:11:37;;;;;;;18.00;13.00;;;;;;;16.82;44.13;101063.53;5069430;28;20070;-27